createdAt,value
2019-03-26T00:01:50.112Z,17.00
2019-03-26T00:04:22.493Z,16.25
2019-03-26T00:06:54.683Z,16.30
2019-03-26T00:09:27.007Z,17.48
2019-03-26T00:11:59.219Z,16.67
2019-03-26T00:14:31.354Z,17.67
2019-03-26T00:17:03.402Z,16.82
2019-03-26T00:19:35.279Z,15.75
2019-03-26T00:22:07.267Z,16.55
2019-03-26T00:24:39.428Z,15.38
2019-03-26T00:27:11.503Z,15.43
2019-03-26T00:29:43.672Z,14.35
2019-03-26T00:32:15.819Z,13.75
2019-03-26T00:34:48.024Z,14.58
2019-03-26T00:37:20.267Z,13.75
2019-03-26T00:39:52.456Z,13.72
2019-03-26T00:42:24.754Z,13.45
2019-03-26T00:44:56.859Z,13.03
2019-03-26T00:47:29.322Z,12.18
2019-03-26T00:50:01.531Z,13.13
2019-03-26T00:52:34.891Z,12.37
2019-03-26T00:55:07.898Z,11.78
2019-03-26T00:57:40.017Z,11.83
2019-03-26T01:00:14.394Z,11.90
2019-03-26T01:02:46.676Z,11.57
2019-03-26T01:05:18.839Z,12.23
2019-03-26T01:07:51.186Z,12.45
2019-03-26T01:10:29.104Z,12.78
2019-03-26T01:13:01.179Z,12.68
2019-03-26T01:15:33.480Z,12.70
2019-03-26T01:18:05.904Z,12.78
2019-03-26T01:20:38.043Z,12.88
2019-03-26T01:23:10.331Z,14.15
2019-03-26T01:25:42.797Z,15.15
2019-03-26T01:28:14.963Z,15.05
2019-03-26T01:30:47.175Z,15.98
2019-03-26T01:33:19.528Z,15.20
2019-03-26T01:35:52.023Z,15.55
2019-03-26T01:38:24.233Z,15.72
2019-03-26T01:40:56.174Z,14.80
2019-03-26T01:43:28.584Z,16.35
2019-03-26T01:46:00.978Z,15.20
2019-03-26T01:48:32.920Z,16.10
2019-03-26T01:51:05.109Z,15.25
2019-03-26T01:53:37.443Z,16.00
2019-03-26T01:56:09.596Z,15.75
2019-03-26T01:58:41.656Z,15.08
2019-03-26T02:01:13.820Z,14.28
2019-03-26T02:03:45.951Z,14.65
2019-03-26T02:06:18.066Z,13.95
2019-03-26T02:08:51.194Z,14.47
2019-03-26T02:11:23.327Z,14.25
2019-03-26T02:13:55.228Z,14.23
2019-03-26T02:16:27.261Z,14.15
2019-03-26T02:18:59.215Z,13.85
2019-03-26T02:21:31.196Z,13.83
2019-03-26T02:24:03.354Z,14.15
2019-03-26T02:26:35.609Z,13.98
2019-03-26T02:29:07.658Z,13.68
2019-03-26T02:31:39.690Z,13.65
2019-03-26T02:34:11.792Z,13.48
2019-03-26T02:36:43.777Z,13.65
2019-03-26T02:39:15.792Z,12.50
2019-03-26T02:41:47.729Z,12.25
2019-03-26T02:44:19.757Z,14.10
2019-03-26T02:46:51.890Z,12.78
2019-03-26T02:49:24.178Z,11.95
2019-03-26T02:51:56.256Z,12.70
2019-03-26T02:54:28.207Z,12.33
2019-03-26T02:57:00.441Z,12.60
2019-03-26T02:59:32.311Z,12.43
2019-03-26T03:02:04.771Z,12.07
2019-03-26T03:04:36.826Z,11.65
2019-03-26T03:07:08.726Z,11.75
2019-03-26T03:09:40.861Z,12.03
2019-03-26T03:12:13.034Z,11.93
2019-03-26T03:14:45.386Z,11.20
2019-03-26T03:17:17.263Z,11.53
2019-03-26T03:19:49.127Z,11.28
2019-03-26T03:22:20.925Z,12.13
2019-03-26T03:24:52.883Z,10.50
2019-03-26T03:27:25.011Z,11.12
2019-03-26T03:29:56.784Z,11.15
2019-03-26T03:32:28.720Z,11.35
2019-03-26T03:35:00.959Z,10.85
2019-03-26T03:37:33.344Z,11.05
2019-03-26T03:40:06.023Z,10.50
2019-03-26T03:42:38.387Z,11.05
2019-03-26T03:45:11.674Z,10.45
